Alpha, Michigan
Current Conditions -  °F | °C
As of 1:54 PM on Monday 24 Nov 2014 (Local Time) from KIMT Reporting Station
Overcast Overcast  
Wind Chill: -7°   Ceiling: 1900
Heat Index:   Visibility: 10mi
Dew Point: -4°   Wind: 21mph
Humidity: 75%   Direction: 340°NNW
Pressure: 29.14"   Gusts: 26mph
Location:  46.04°N, 88.38°W
Report Text: KIMT 241954Z AUTO 34018G23KT 10SM OVC019 00/M04 A2914 RMK AO2 RAE1858UPB1858E15 SLP880 P0000 T00001039
Loading
Personal Weather Stations






























Interactive Weather Map New forecast layout! Learn more

10-Day Weather Forecast

Advertisements
Track Severe Weather on mobile